Time;durP1;ratioP1;P1;durP2;ratioP2;P2;SDS_P1;SDS_P2;PMS_P1;PMS_P2;Temp;Humidity;BMP_temperature;BMP_pressure;BME280_temperature;BME280_humidity;BME280_pressure;Samples;Min_cycle;Max_cycle;Signal;HPM_P1;HPM_P2
2021/08/19 00:00:13;;;;;;;13.10;6.07;;;17.60;99.90;;;;;;5055690;27;38156;-86
2021/08/19 00:02:39;;;;;;;9.77;6.68;;;17.50;99.90;;;;;;5061113;27;36809;-86
2021/08/19 00:05:05;;;;;;;9.57;7.30;;;17.50;99.90;;;;;;5052891;27;37188;-84
2021/08/19 00:07:31;;;;;;;6.65;6.00;;;17.50;99.90;;;;;;5069699;27;35973;-88
2021/08/19 00:09:57;;;;;;;10.80;7.43;;;17.50;99.90;;;;;;5057999;27;39450;-87
2021/08/19 00:12:25;;;;;;;9.50;7.70;;;17.50;99.90;;;;;;5051378;27;37221;-86
2021/08/19 00:14:51;;;;;;;11.85;7.15;;;17.50;99.90;;;;;;5072681;27;37967;-86
2021/08/19 00:17:17;;;;;;;12.13;9.05;;;17.50;99.90;;;;;;5065080;27;37648;-86
2021/08/19 00:19:43;;;;;;;13.68;8.95;;;17.40;99.90;;;;;;5071427;27;37825;-86
2021/08/19 00:22:09;;;;;;;11.40;9.23;;;17.40;99.90;;;;;;5055537;28;37078;-86
2021/08/19 00:24:35;;;;;;;10.45;8.52;;;17.40;99.90;;;;;;5059363;28;37877;-86
2021/08/19 00:27:01;;;;;;;12.07;8.48;;;17.40;99.90;;;;;;5058618;27;37254;-84
2021/08/19 00:29:28;;;;;;;10.95;8.75;;;17.40;99.90;;;;;;5090376;27;39083;-86
2021/08/19 00:31:54;;;;;;;10.73;8.25;;;17.30;99.90;;;;;;5055529;27;38047;-86
2021/08/19 00:34:20;;;;;;;11.80;9.38;;;17.40;99.90;;;;;;5061639;27;37260;-86
2021/08/19 00:36:46;;;;;;;11.38;9.32;;;17.30;99.90;;;;;;5058512;27;37189;-86
2021/08/19 00:39:12;;;;;;;16.20;9.50;;;17.30;99.90;;;;;;5084827;27;37778;-86
2021/08/19 00:41:39;;;;;;;11.65;8.65;;;17.40;99.90;;;;;;5053344;27;37598;-85
2021/08/19 00:44:06;;;;;;;13.88;10.70;;;17.40;99.90;;;;;;5068402;28;39260;-86
2021/08/19 00:46:36;;;;;;;14.13;10.98;;;17.40;99.90;;;;;;5062329;28;37043;-86
2021/08/19 00:49:10;;;;;;;12.63;9.65;;;17.40;99.90;;;;;;5053066;28;39202;-86
2021/08/19 00:51:47;;;;;;;16.67;11.80;;;17.40;99.90;;;;;;5052837;27;38296;-85
2021/08/19 00:54:19;;;;;;;14.05;11.20;;;17.30;99.90;;;;;;5062439;27;39684;-86
2021/08/19 00:56:46;;;;;;;11.07;9.75;;;17.30;99.90;;;;;;5052602;27;38432;-86
2021/08/19 00:59:13;;;;;;;14.30;11.75;;;17.30;99.90;;;;;;5054767;27;37742;-86
2021/08/19 01:01:42;;;;;;;10.55;9.43;;;17.40;99.90;;;;;;5051403;27;38353;-86
2021/08/19 01:04:08;;;;;;;18.55;13.05;;;17.40;99.90;;;;;;5060190;28;37754;-86
2021/08/19 01:06:36;;;;;;;13.95;11.10;;;17.40;99.90;;;;;;5058653;27;37167;-84
2021/08/19 01:09:06;;;;;;;14.43;10.00;;;17.40;99.90;;;;;;5051882;28;39349;-86
2021/08/19 01:11:34;;;;;;;13.93;10.65;;;17.40;99.90;;;;;;5054273;28;40104;-86
2021/08/19 01:14:00;;;;;;;15.65;11.60;;;17.40;99.90;;;;;;5049920;28;36916;-86
2021/08/19 01:16:28;;;;;;;15.15;11.32;;;17.40;99.90;;;;;;5052121;27;36577;-86
2021/08/19 01:18:54;;;;;;;14.30;12.00;;;17.50;99.90;;;;;;5050833;27;39524;-86
2021/08/19 01:21:20;;;;;;;18.30;12.00;;;17.50;99.90;;;;;;5053310;27;38484;-86
2021/08/19 01:23:48;;;;;;;16.02;11.48;;;17.40;99.90;;;;;;5054685;27;36771;-87
2021/08/19 01:26:17;;;;;;;16.05;11.60;;;17.50;99.90;;;;;;5052021;27;38167;-86
2021/08/19 01:28:45;;;;;;;16.50;11.15;;;17.50;99.90;;;;;;5052543;28;37320;-87
2021/08/19 01:31:19;;;;;;;22.10;10.45;;;17.50;99.90;;;;;;5051956;27;38866;-86
2021/08/19 01:33:47;;;;;;;17.25;10.27;;;17.50;99.90;;;;;;5045249;27;37079;-87
2021/08/19 01:36:15;;;;;;;14.30;10.43;;;17.50;99.90;;;;;;5050696;28;36496;-86
2021/08/19 01:38:42;;;;;;;14.48;9.85;;;17.60;99.90;;;;;;5043928;27;41774;-86
2021/08/19 01:41:09;;;;;;;18.42;9.88;;;17.50;99.90;;;;;;5049536;28;37079;-86
2021/08/19 01:43:39;;;;;;;21.33;11.48;;;17.40;99.90;;;;;;5086037;27;37040;-87
2021/08/19 01:46:10;;;;;;;20.15;9.85;;;17.30;99.90;;;;;;5051183;27;36478;-85
2021/08/19 01:48:41;;;;;;;19.90;10.55;;;17.30;99.90;;;;;;5043671;27;36609;-85
2021/08/19 06:58:10;;;;;;;10.48;7.75;;;17.70;99.90;;;;;;5731017;23;20023;31
2021/08/19 08:57:46;;;;;;;6.13;5.32;;;18.40;99.90;;;;;;6065387;23;20370;31
2021/08/19 10:17:03;;;;;;;10.77;5.60;;;17.80;99.90;;;;;;5208845;23;20036;-81
2021/08/19 10:19:53;;;;;;;8.02;5.47;;;17.60;99.90;;;;;;4927147;28;47630;-80
2021/08/19 10:22:34;;;;;;;10.00;6.65;;;17.50;99.90;;;;;;4948796;28;37019;-81
2021/08/19 10:25:10;;;;;;;10.32;7.03;;;17.50;99.90;;;;;;5241695;23;39233;-80
2021/08/19 10:28:14;;;;;;;9.02;6.75;;;17.50;99.90;;;;;;4939579;28;48242;-81
2021/08/19 10:44:17;;;;;;;13.07;8.43;;;17.30;99.90;;;;;;5845553;23;20058;-80
2021/08/19 11:07:11;;;;;;;14.55;8.35;;;17.60;99.90;;;;;;6007710;23;20023;31
2021/08/19 11:09:38;;;;;;;9.60;7.03;;;17.60;99.90;;;;;;4951824;28;39138;-78
2021/08/19 11:12:08;;;;;;;11.15;7.55;;;17.70;99.90;;;;;;4932805;28;37833;-78
2021/08/19 11:30:29;;;;;;;11.70;8.23;;;17.40;99.90;;;;;;4932213;23;20048;-77
2021/08/19 11:33:21;;;;;;;13.57;8.10;;;17.30;99.90;;;;;;4945699;28;39285;-77
2021/08/19 11:36:08;;;;;;;13.40;7.77;;;17.20;99.90;;;;;;4924947;28;48696;-78
2021/08/19 11:38:35;;;;;;;8.35;5.63;;;17.20;99.90;;;;;;4936934;28;48428;-78
2021/08/19 11:41:20;;;;;;;8.02;6.47;;;17.20;99.90;;;;;;4953273;28;37456;-78
2021/08/19 11:43:48;;;;;;;10.55;6.13;;;17.40;99.90;;;;;;4931033;28;39297;-78
2021/08/19 11:46:20;;;;;;;11.18;5.97;;;17.40;99.90;;;;;;4941935;28;39087;-78
2021/08/19 11:48:57;;;;;;;11.52;6.28;;;17.50;99.90;;;;;;4944325;28;37450;-79
2021/08/19 11:51:30;;;;;;;9.15;5.25;;;17.60;99.90;;;;;;4927984;29;38162;-79
2021/08/19 11:54:04;;;;;;;;;;;17.70;99.90;;;;;;4947466;28;38606;-79
2021/08/19 11:56:44;;;;;;;12.73;6.18;;;17.70;99.90;;;;;;4942833;28;48070;-79
2021/08/19 11:59:18;;;;;;;11.35;5.82;;;17.90;99.90;;;;;;4930045;28;37592;-79
2021/08/19 12:01:54;;;;;;;9.85;4.40;;;17.80;99.90;;;;;;4947787;28;37194;-79
2021/08/19 12:04:30;;;;;;;13.25;5.03;;;17.80;99.90;;;;;;4940126;28;39170;-78
2021/08/19 12:06:57;;;;;;;8.48;5.03;;;17.90;99.90;;;;;;4924649;28;37699;-79
2021/08/19 12:09:24;;;;;;;6.85;4.25;;;17.90;99.90;;;;;;4942746;29;38579;-79
2021/08/19 12:11:52;;;;;;;10.13;4.32;;;18.00;99.90;;;;;;4933459;28;37362;-79
2021/08/19 12:14:24;;;;;;;10.88;4.28;;;18.00;99.90;;;;;;4935165;28;38088;-79
2021/08/19 12:16:51;;;;;;;;;;;18.00;99.90;;;;;;4935222;28;38337;-79
2021/08/19 12:19:18;;;;;;;9.27;4.47;;;18.20;99.90;;;;;;4943576;28;38892;-78
2021/08/19 12:21:53;;;;;;;8.93;4.60;;;18.30;99.90;;;;;;4924604;29;36846;-78
2021/08/19 12:24:20;;;;;;;6.57;3.53;;;18.40;99.90;;;;;;4917323;29;40023;-80
2021/08/19 12:31:58;;;;;;;5.80;3.75;;;18.80;99.90;;;;;;5129273;23;20040;-80
2021/08/19 12:34:25;;;;;;;5.35;3.10;;;19.10;99.90;;;;;;4913843;29;38196;-78
2021/08/19 12:37:04;;;;;;;6.85;3.33;;;19.10;99.90;;;;;;4923655;28;37389;-80
2021/08/19 12:39:34;;;;;;;7.47;3.08;;;19.10;99.90;;;;;;4930177;29;48521;-78
2021/08/19 12:42:07;;;;;;;4.75;2.85;;;19.10;99.90;;;;;;4933884;28;36285;-79
2021/08/19 12:44:34;;;;;;;6.32;2.97;;;19.00;99.90;;;;;;4932644;29;48535;-80
2021/08/19 12:47:00;;;;;;;7.15;3.50;;;19.10;99.90;;;;;;4922636;29;36876;-79
2021/08/19 12:49:28;;;;;;;6.97;3.15;;;19.00;99.90;;;;;;4924423;29;37140;-80
2021/08/19 12:52:13;;;;;;;4.93;3.20;;;19.10;99.90;;;;;;4938557;28;35901;-80
2021/08/19 12:54:54;;;;;;;10.57;4.38;;;19.10;99.90;;;;;;4921047;29;46881;-79
2021/08/19 12:57:30;;;;;;;6.80;3.88;;;19.10;99.90;;;;;;4928049;28;37578;-80
2021/08/19 13:00:04;;;;;;;6.97;3.47;;;19.00;99.90;;;;;;4922116;29;36751;-80
2021/08/19 13:02:30;;;;;;;8.05;3.70;;;19.20;99.90;;;;;;4935225;28;47011;-80
2021/08/19 13:04:58;;;;;;;8.15;3.92;;;19.20;99.90;;;;;;4933008;29;39223;-80
2021/08/19 13:07:25;;;;;;;3.67;2.97;;;19.40;99.90;;;;;;4924119;29;37590;-81
2021/08/19 13:09:57;;;;;;;9.02;3.63;;;19.60;99.90;;;;;;4930226;29;38752;-80
2021/08/19 13:12:25;;;;;;;4.03;2.92;;;19.90;99.90;;;;;;4913505;29;36763;-80
2021/08/19 13:14:55;;;;;;;7.40;3.13;;;20.00;99.90;;;;;;4926574;29;37622;-81
2021/08/19 13:17:22;;;;;;;6.53;3.20;;;20.20;99.90;;;;;;4923822;29;37547;-79
2021/08/19 13:19:48;;;;;;;7.20;3.17;;;20.20;99.90;;;;;;4947587;29;37512;-80
2021/08/19 13:22:21;;;;;;;5.95;3.42;;;20.10;99.90;;;;;;4933939;29;36314;-81
2021/08/19 13:24:48;;;;;;;7.70;3.72;;;20.00;99.90;;;;;;4933391;29;38011;-80
2021/08/19 13:27:15;;;;;;;8.85;4.10;;;20.00;99.90;;;;;;4933388;28;37985;-80
2021/08/19 13:29:45;;;;;;;6.85;4.30;;;20.00;99.90;;;;;;5006401;23;39598;-81
2021/08/19 13:34:52;;;;;;;6.78;3.50;;;19.90;99.90;;;;;;4964844;28;20055;-81
2021/08/19 13:37:19;;;;;;;10.05;4.28;;;19.80;99.90;;;;;;4986828;28;38727;-80
2021/08/19 13:39:54;;;;;;;6.15;3.70;;;19.70;99.90;;;;;;4990374;28;37809;-80
2021/08/19 13:42:20;;;;;;;6.75;2.95;;;19.60;99.90;;;;;;4972382;28;38183;-80
2021/08/19 13:44:46;;;;;;;6.82;3.67;;;19.80;99.90;;;;;;4972917;28;38297;-80
2021/08/19 13:47:13;;;;;;;5.45;3.00;;;19.70;99.90;;;;;;4973517;28;38230;-80
2021/08/19 13:49:40;;;;;;;7.07;3.20;;;19.80;99.90;;;;;;4975104;28;36680;-80
2021/08/19 13:52:06;;;;;;;10.77;3.65;;;19.60;99.90;;;;;;4977342;28;36963;-80
2021/08/19 13:55:03;;;;;;;7.07;3.75;;;19.50;99.90;;;;;;4975201;28;38124;-80
2021/08/19 13:57:30;;;;;;;4.72;3.50;;;19.40;99.90;;;;;;4972372;28;39273;-81
2021/08/19 13:59:59;;;;;;;7.35;3.35;;;19.20;99.90;;;;;;4967067;28;37461;-80
2021/08/19 14:02:35;;;;;;;8.77;4.63;;;19.10;99.90;;;;;;4962560;28;36157;-81
2021/08/19 14:05:01;;;;;;;9.15;3.60;;;19.00;99.90;;;;;;4981474;28;39204;-80
2021/08/19 14:07:30;;;;;;;10.35;4.25;;;19.20;99.90;;;;;;4970781;28;38298;-80
2021/08/19 14:09:57;;;;;;;7.60;3.67;;;19.30;99.90;;;;;;4990474;28;38599;-81
2021/08/19 14:12:34;;;;;;;6.07;3.53;;;19.30;99.90;;;;;;4966556;28;37393;-81
2021/08/19 14:15:17;;;;;;;8.43;3.88;;;19.30;99.90;;;;;;4970118;28;39264;-81
2021/08/19 14:17:45;;;;;;;6.43;3.53;;;19.20;99.90;;;;;;4987444;28;50276;-81
2021/08/19 14:20:12;;;;;;;4.13;3.13;;;19.20;99.90;;;;;;4967734;28;38600;-80
2021/08/19 14:22:50;;;;;;;6.10;4.10;;;19.20;99.90;;;;;;4973260;28;38510;-80
2021/08/19 14:28:26;;;;;;;7.70;4.70;;;19.10;99.90;;;;;;5249874;23;20031;-82
2021/08/19 14:30:52;;;;;;;6.57;3.92;;;18.80;99.90;;;;;;4949775;28;38408;-80
2021/08/19 14:33:29;;;;;;;7.40;4.20;;;18.80;99.90;;;;;;4936610;28;36469;-81
2021/08/19 15:04:30;;;;;;;10.25;4.60;;;18.50;99.90;;;;;;5750369;23;20057;-80
2021/08/19 16:52:20;;;;;;;5.70;3.25;;;18.40;99.90;;;;;;5936254;23;20368;-80
2021/08/19 17:38:59;;;;;;;7.68;3.17;;;18.10;99.90;;;;;;5844695;23;20474;-79
2021/08/19 17:41:25;;;;;;;7.70;3.45;;;18.10;99.90;;;;;;4956414;28;37734;-80
2021/08/19 18:28:10;;;;;;;6.50;3.03;;;17.50;99.90;;;;;;5576433;23;20055;-82
2021/08/19 18:30:36;;;;;;;4.70;3.13;;;17.50;99.90;;;;;;4925957;28;37423;-78
2021/08/19 18:33:02;;;;;;;4.68;2.28;;;17.40;99.90;;;;;;4932726;28;38762;-79
2021/08/19 18:35:31;;;;;;;5.15;3.05;;;17.40;99.90;;;;;;4921340;28;37297;-79
2021/08/19 18:37:57;;;;;;;4.68;2.92;;;17.40;99.90;;;;;;4954445;28;38806;-80
2021/08/19 18:40:24;;;;;;;8.27;3.22;;;17.30;99.90;;;;;;4924779;28;20045;-79
2021/08/19 18:42:51;;;;;;;5.78;3.10;;;17.30;99.90;;;;;;4923300;29;36283;-79
2021/08/19 18:45:17;;;;;;;9.95;3.63;;;17.20;99.90;;;;;;4915838;28;36103;-79
2021/08/19 18:47:44;;;;;;;11.23;3.15;;;17.20;99.90;;;;;;4929170;29;38983;-79
2021/08/19 18:50:14;;;;;;;5.63;3.00;;;17.20;99.90;;;;;;4920655;28;37673;-79
2021/08/19 18:52:43;;;;;;;6.05;3.08;;;17.10;99.90;;;;;;4944908;28;39017;-79
2021/08/19 18:55:09;;;;;;;8.88;2.83;;;17.10;99.90;;;;;;4954327;28;37150;-80
2021/08/19 18:57:35;;;;;;;6.28;3.30;;;17.10;99.90;;;;;;4927815;28;38835;-79
2021/08/19 19:00:04;;;;;;;5.32;3.00;;;17.00;99.90;;;;;;4929845;29;40252;-80
2021/08/19 19:02:30;;;;;;;5.30;3.45;;;16.90;99.90;;;;;;4919609;28;48799;-79
2021/08/19 19:04:56;;;;;;;5.80;3.45;;;16.90;99.90;;;;;;4928749;29;36720;-79
2021/08/19 19:07:22;;;;;;;5.78;3.15;;;16.80;99.90;;;;;;4915261;28;39242;-79
2021/08/19 19:09:48;;;;;;;6.00;3.17;;;16.80;99.90;;;;;;4917263;29;37515;-79
2021/08/19 19:12:14;;;;;;;5.88;3.47;;;16.80;99.90;;;;;;4916105;28;37056;-78
2021/08/19 19:14:41;;;;;;;7.40;3.70;;;16.70;99.90;;;;;;4914019;29;36232;-78
2021/08/19 19:17:07;;;;;;;6.55;3.70;;;16.70;99.90;;;;;;4913808;28;39796;-78
2021/08/19 19:19:34;;;;;;;6.80;4.32;;;16.60;99.90;;;;;;4913590;28;37619;-77
2021/08/19 19:22:01;;;;;;;4.97;3.78;;;16.60;99.90;;;;;;4915700;28;36511;-78
2021/08/19 19:24:28;;;;;;;7.57;4.63;;;16.60;99.90;;;;;;4911512;28;47117;-77
2021/08/19 19:26:54;;;;;;;5.80;3.38;;;16.50;99.90;;;;;;4911560;28;39695;-78
2021/08/19 19:29:20;;;;;;;5.60;4.03;;;16.50;99.90;;;;;;4911981;29;40310;-78
2021/08/19 19:31:46;;;;;;;8.25;3.80;;;16.50;99.90;;;;;;4909269;28;36456;-79
2021/08/19 19:34:13;;;;;;;6.95;3.72;;;16.40;99.90;;;;;;4927998;28;37193;-79
2021/08/19 19:36:39;;;;;;;7.70;3.83;;;16.40;99.90;;;;;;4928960;28;40202;-78
2021/08/19 19:39:05;;;;;;;7.13;3.25;;;16.40;99.90;;;;;;4930298;28;37931;-78
2021/08/19 19:41:32;;;;;;;5.85;3.25;;;16.50;99.90;;;;;;4927480;28;37568;-78
2021/08/19 19:43:58;;;;;;;4.97;2.90;;;16.50;99.90;;;;;;4943705;28;36234;-78
2021/08/19 19:46:24;;;;;;;6.75;3.47;;;16.50;99.90;;;;;;4933489;28;39464;-78
2021/08/19 19:48:51;;;;;;;5.03;3.20;;;16.60;99.90;;;;;;4916161;28;37737;-78
2021/08/19 19:51:27;;;;;;;6.93;3.00;;;16.60;99.90;;;;;;4931463;28;36469;-79
2021/08/19 19:53:55;;;;;;;6.35;3.47;;;16.60;99.90;;;;;;4932795;28;36656;-79
2021/08/19 19:56:21;;;;;;;5.40;3.60;;;16.60;99.90;;;;;;4957944;28;39633;-79
2021/08/19 19:58:47;;;;;;;7.25;3.58;;;16.60;99.90;;;;;;4930113;29;37138;-78
2021/08/19 20:01:14;;;;;;;7.95;3.60;;;16.60;99.90;;;;;;4940831;28;37603;-79
2021/08/19 20:03:42;;;;;;;8.95;3.50;;;16.60;99.90;;;;;;4940044;28;37517;-79
2021/08/19 20:06:11;;;;;;;5.70;4.40;;;16.60;99.90;;;;;;4933189;28;38659;-79
2021/08/19 20:08:40;;;;;;;6.07;4.32;;;16.60;99.90;;;;;;4940464;28;37714;-79
2021/08/19 20:11:06;;;;;;;7.95;4.60;;;16.60;99.90;;;;;;4924190;28;37636;-79
2021/08/19 20:13:33;;;;;;;5.47;3.67;;;16.60;99.90;;;;;;4937569;28;38436;-79
2021/08/19 20:15:59;;;;;;;8.13;4.32;;;16.60;99.90;;;;;;4947591;28;40128;-80
2021/08/19 20:18:26;;;;;;;10.52;5.15;;;16.50;99.90;;;;;;4932119;28;37868;-80
2021/08/19 20:21:17;;;;;;;8.05;5.40;;;16.50;99.90;;;;;;4950424;28;37857;-79
2021/08/19 20:23:43;;;;;;;9.57;6.32;;;16.40;99.90;;;;;;4921792;28;47091;-79
2021/08/19 20:26:19;;;;;;;7.32;5.50;;;16.40;99.90;;;;;;4935452;28;38854;-79
2021/08/19 20:28:46;;;;;;;9.93;6.20;;;16.30;99.90;;;;;;4934367;28;37554;-79
2021/08/19 20:31:12;;;;;;;10.70;6.50;;;16.20;99.90;;;;;;4946067;28;37086;-78
2021/08/19 20:33:38;;;;;;;8.05;6.25;;;16.20;99.90;;;;;;4933955;29;36550;-79
2021/08/19 20:36:05;;;;;;;10.27;7.65;;;16.20;99.90;;;;;;4928952;28;37654;-79
2021/08/19 20:38:31;;;;;;;12.10;7.68;;;16.10;99.90;;;;;;4926575;29;37196;-79
2021/08/19 20:40:58;;;;;;;13.60;7.13;;;16.00;99.90;;;;;;4927798;28;37686;-78
2021/08/19 20:43:26;;;;;;;12.32;8.60;;;16.00;99.90;;;;;;4929256;28;37059;-79
2021/08/19 20:45:52;;;;;;;8.82;7.03;;;16.00;99.90;;;;;;4930911;28;37311;-79
2021/08/19 20:48:18;;;;;;;13.70;8.30;;;15.90;99.90;;;;;;4933843;28;38278;-79
2021/08/19 20:50:44;;;;;;;13.50;9.52;;;15.90;99.90;;;;;;4950303;28;37712;-79
2021/08/19 20:53:12;;;;;;;10.30;7.63;;;15.90;99.90;;;;;;4951617;28;38646;-78
2021/08/19 20:55:38;;;;;;;10.57;8.80;;;15.90;99.90;;;;;;4938560;29;39583;-78
2021/08/19 20:58:04;;;;;;;14.00;9.60;;;15.90;99.90;;;;;;4923984;28;37466;-78
2021/08/19 21:00:41;;;;;;;14.52;9.07;;;15.80;99.90;;;;;;4932388;28;36868;-79
2021/08/19 21:03:07;;;;;;;11.32;8.77;;;15.80;99.90;;;;;;4939829;28;37080;-79
2021/08/19 21:05:33;;;;;;;15.07;10.55;;;15.70;99.90;;;;;;4922913;28;37748;-79
2021/08/19 21:07:59;;;;;;;13.88;10.43;;;15.70;99.90;;;;;;4925766;28;38501;-79
2021/08/19 21:10:26;;;;;;;12.38;10.68;;;15.60;99.90;;;;;;4924661;28;37773;-78
2021/08/19 21:12:52;;;;;;;12.25;9.45;;;15.60;99.90;;;;;;4920276;28;36080;-78
2021/08/19 21:15:22;;;;;;;12.75;9.77;;;15.60;99.90;;;;;;4934631;28;39110;-79
2021/08/19 21:17:48;;;;;;;17.02;10.20;;;15.50;99.90;;;;;;4917538;29;37995;-78
2021/08/19 21:20:22;;;;;;;14.43;9.50;;;15.50;99.90;;;;;;4936154;28;37722;-78
2021/08/19 21:22:48;;;;;;;18.55;9.50;;;15.40;99.90;;;;;;4929483;28;36404;-79
2021/08/19 21:25:14;;;;;;;14.73;10.13;;;15.40;99.90;;;;;;4922980;28;37550;-79
2021/08/19 21:27:41;;;;;;;12.05;9.15;;;15.30;99.90;;;;;;4923010;28;37059;-79
2021/08/19 21:30:07;;;;;;;14.38;9.95;;;15.30;99.90;;;;;;4936223;28;37995;-79
2021/08/19 21:32:35;;;;;;;16.67;11.48;;;15.30;99.90;;;;;;4921976;28;47257;-79
2021/08/19 21:35:03;;;;;;;14.80;10.85;;;15.20;99.90;;;;;;4922657;28;38873;-78
2021/08/19 21:37:30;;;;;;;13.05;10.73;;;15.20;99.90;;;;;;4921589;29;47051;-78
2021/08/19 21:39:56;;;;;;;13.18;10.95;;;15.20;99.90;;;;;;4934616;28;36669;-78
2021/08/19 21:42:24;;;;;;;15.13;10.25;;;15.20;99.90;;;;;;4937350;28;37995;-78
2021/08/19 21:44:50;;;;;;;15.23;11.07;;;15.10;99.90;;;;;;4920115;28;38733;-79
2021/08/19 21:47:16;;;;;;;14.40;11.75;;;15.10;99.90;;;;;;4924642;28;36934;-79
2021/08/19 21:49:42;;;;;;;20.58;13.20;;;15.10;99.90;;;;;;4943180;28;37070;-78
2021/08/19 21:52:09;;;;;;;16.52;13.40;;;15.00;99.90;;;;;;4943521;28;37418;-79
2021/08/19 21:54:36;;;;;;;22.55;14.48;;;15.00;99.90;;;;;;4942559;28;37962;-78
2021/08/19 21:57:02;;;;;;;16.98;12.82;;;15.00;99.90;;;;;;4943763;28;39570;-79
2021/08/19 21:59:28;;;;;;;15.38;13.10;;;14.90;99.90;;;;;;4942291;28;37068;-79
2021/08/19 22:01:54;;;;;;;15.20;12.38;;;14.90;99.90;;;;;;4955000;28;37811;-78
2021/08/19 22:04:20;;;;;;;17.60;12.77;;;14.90;99.90;;;;;;4935297;28;38076;-78
2021/08/19 22:06:50;;;;;;;21.83;14.07;;;14.90;99.90;;;;;;4941926;28;37438;-78
2021/08/19 22:09:17;;;;;;;14.30;11.38;;;14.90;99.90;;;;;;4943963;28;36677;-79
2021/08/19 22:11:43;;;;;;;16.92;14.13;;;14.90;99.90;;;;;;4953713;28;36495;-79
2021/08/19 22:14:09;;;;;;;16.67;11.95;;;14.80;99.90;;;;;;4955285;28;38051;-79
2021/08/19 22:16:35;;;;;;;13.45;11.20;;;14.80;99.90;;;;;;4941091;28;37084;-79
2021/08/19 22:19:01;;;;;;;14.82;11.55;;;14.80;99.90;;;;;;4940424;28;36837;-78
2021/08/19 22:21:28;;;;;;;20.65;13.95;;;14.80;99.90;;;;;;4940231;28;37403;-79
2021/08/19 22:23:57;;;;;;;16.23;12.43;;;14.80;99.90;;;;;;4954336;28;38861;-79
2021/08/19 22:26:29;;;;;;;16.80;12.60;;;14.90;99.90;;;;;;4942018;28;37287;-79
2021/08/19 22:28:55;;;;;;;14.85;10.77;;;14.90;99.90;;;;;;4939026;28;36963;-79
2021/08/19 22:31:21;;;;;;;20.00;13.50;;;14.90;99.90;;;;;;4955416;28;37846;-80
2021/08/19 22:33:48;;;;;;;15.60;12.10;;;14.90;99.90;;;;;;4960974;28;40102;-79
2021/08/19 22:36:18;;;;;;;13.73;10.52;;;15.00;99.90;;;;;;4935995;28;37006;-79
2021/08/19 22:38:45;;;;;;;17.10;11.77;;;15.00;99.90;;;;;;4955340;28;37921;-79
2021/08/19 22:41:11;;;;;;;15.25;9.85;;;15.10;99.90;;;;;;4954845;28;37214;-79
2021/08/19 22:43:37;;;;;;;13.23;9.25;;;15.00;99.90;;;;;;4957234;28;38015;-79
2021/08/19 22:46:04;;;;;;;17.63;12.13;;;15.10;99.90;;;;;;4937421;28;39081;-77
2021/08/19 22:48:30;;;;;;;15.43;12.43;;;15.00;99.90;;;;;;4936018;28;38023;-80
2021/08/19 22:50:56;;;;;;;13.15;9.85;;;15.10;99.90;;;;;;4933964;28;37076;-80
2021/08/19 22:53:23;;;;;;;17.23;12.38;;;15.10;99.90;;;;;;4937379;28;37648;-80
2021/08/19 22:55:58;;;;;;;15.32;11.30;;;15.10;99.90;;;;;;4960277;28;37984;-80
2021/08/19 22:58:24;;;;;;;19.15;12.95;;;15.10;99.90;;;;;;4926914;28;37420;-79
2021/08/19 23:00:52;;;;;;;14.90;11.60;;;15.10;99.90;;;;;;4942834;28;36619;-79
2021/08/19 23:03:19;;;;;;;16.73;12.50;;;15.10;99.90;;;;;;4939604;28;37431;-80
2021/08/19 23:05:45;;;;;;;12.63;10.63;;;15.10;99.90;;;;;;4942780;28;35895;-79
2021/08/19 23:08:11;;;;;;;15.55;10.90;;;15.10;99.90;;;;;;4946771;28;37956;-80
2021/08/19 23:10:38;;;;;;;15.90;11.77;;;15.10;99.90;;;;;;4931114;28;36370;-79
2021/08/19 23:13:08;;;;;;;18.40;13.30;;;15.10;99.90;;;;;;4945654;28;37651;-79
2021/08/19 23:15:35;;;;;;;17.52;12.40;;;15.10;99.90;;;;;;4941912;28;36906;-79
2021/08/19 23:18:03;;;;;;;22.83;12.18;;;15.20;99.90;;;;;;4942601;28;36951;-79
2021/08/19 23:20:30;;;;;;;21.30;16.23;;;15.20;99.90;;;;;;4941111;28;47220;-79
2021/08/19 23:22:56;;;;;;;19.27;13.23;;;15.20;99.90;;;;;;4943812;28;37640;-79
2021/08/19 23:25:23;;;;;;;19.40;13.65;;;15.20;99.90;;;;;;4935643;28;38394;-79
2021/08/19 23:27:49;;;;;;;19.77;15.15;;;15.20;99.90;;;;;;4955176;28;38809;-79
2021/08/19 23:30:15;;;;;;;20.73;14.25;;;15.30;99.90;;;;;;4943701;28;35985;-78
2021/08/19 23:32:41;;;;;;;17.65;13.90;;;15.30;99.90;;;;;;4943112;28;40464;-79
2021/08/19 23:35:08;;;;;;;18.75;14.13;;;15.20;99.90;;;;;;4938915;28;37237;-79
2021/08/19 23:37:35;;;;;;;25.27;14.93;;;15.20;99.90;;;;;;4942100;28;38151;-79
2021/08/19 23:40:01;;;;;;;21.83;15.75;;;15.20;99.90;;;;;;4957831;28;37430;-78
2021/08/19 23:42:27;;;;;;;21.92;14.68;;;15.30;99.90;;;;;;4941252;28;37722;-78
2021/08/19 23:44:53;;;;;;;17.50;13.50;;;15.30;99.90;;;;;;4947266;28;38338;-78
2021/08/19 23:47:19;;;;;;;17.70;13.00;;;15.30;99.90;;;;;;4953640;28;39041;-78
2021/08/19 23:49:46;;;;;;;21.73;15.82;;;15.40;99.90;;;;;;4941974;28;37353;-79
2021/08/19 23:52:12;;;;;;;20.15;15.70;;;15.40;99.90;;;;;;4957388;28;38324;-79
2021/08/19 23:54:38;;;;;;;16.63;14.10;;;15.50;99.90;;;;;;4950746;28;38376;-79
2021/08/19 23:57:04;;;;;;;18.95;13.95;;;15.50;99.90;;;;;;4956334;28;38265;-79
2021/08/19 23:59:30;;;;;;;16.85;13.65;;;15.50;99.90;;;;;;4957817;28;38961;-79
